Time;durP1;ratioP1;P1;durP2;ratioP2;P2;SDS_P1;SDS_P2;PMS_P1;PMS_P2;Temp;Humidity;BMP_temperature;BMP_pressure;BME280_temperature;BME280_humidity;BME280_pressure;Samples;Min_cycle;Max_cycle;Signal;HPM_P1;HPM_P2
2023/08/05 00:01:00;;;;;;;4.93;2.25;;;;;;;-142.57;100.00;115900.28;5064859;28;20466;-85
2023/08/05 00:03:26;;;;;;;9.25;2.80;;;;;;;-142.57;100.00;115900.28;5049087;28;20049;-89
2023/08/05 00:05:52;;;;;;;4.93;2.53;;;;;;;-142.57;100.00;115900.28;5066762;28;20072;-86
2023/08/05 00:08:17;;;;;;;6.07;2.45;;;;;;;-142.57;100.00;115900.28;5058435;28;20036;-92
2023/08/05 00:10:44;;;;;;;7.45;2.38;;;;;;;-142.57;100.00;115900.28;5044153;28;20041;-91
2023/08/05 00:13:15;;;;;;;6.22;2.60;;;;;;;-142.57;100.00;115900.28;5022074;28;20033;-85
2023/08/05 00:16:14;;;;;;;7.78;2.42;;;;;;;-142.57;100.00;115900.28;5057418;28;20047;-83
2023/08/05 00:18:54;;;;;;;9.73;2.78;;;;;;;-142.57;100.00;115900.28;5074689;28;20025;-83
2023/08/05 00:21:20;;;;;;;7.32;1.95;;;;;;;-142.57;100.00;115900.28;5075136;28;20100;-81
2023/08/05 00:23:48;;;;;;;5.63;2.20;;;;;;;-142.57;100.00;115900.28;5073563;28;20021;-85
2023/08/05 00:26:16;;;;;;;5.97;2.58;;;;;;;-142.57;100.00;115900.28;5069756;28;20039;-87
2023/08/05 00:28:45;;;;;;;5.45;2.47;;;;;;;-142.57;100.00;115900.28;5050175;28;20038;-87
2023/08/05 00:39:20;;;;;;;8.98;2.70;;;;;;;-142.57;100.00;115900.28;2728192;23;20029;-83
2023/08/05 00:42:37;;;;;;;9.75;2.22;;;;;;;-142.57;100.00;115900.28;5177821;23;20060;-81
2023/08/05 00:56:02;;;;;;;7.95;2.10;;;;;;;-142.57;100.00;115900.28;5096211;23;20060;-81
2023/08/05 00:58:47;;;;;;;8.35;2.35;;;;;;;-142.57;100.00;115900.28;5072104;28;20077;-89
2023/08/05 01:01:13;;;;;;;5.57;2.13;;;;;;;-142.57;100.00;115900.28;5070430;28;20037;-89
2023/08/05 01:03:46;;;;;;;4.05;2.22;;;;;;;-142.57;100.00;115900.28;5070465;28;20076;-93
2023/08/05 01:12:44;;;;;;;3.20;1.67;;;;;;;-142.57;100.00;115900.28;5052719;26;20025;-88
2023/08/05 01:15:10;;;;;;;4.35;1.90;;;;;;;-142.57;100.00;115900.28;5056383;28;20037;-91
2023/08/05 01:18:17;;;;;;;3.90;1.80;;;;;;;-142.57;100.00;115900.28;5072384;28;20077;-83
2023/08/05 01:20:52;;;;;;;3.42;1.88;;;;;;;-142.57;100.00;115900.28;5049121;28;20045;-87
2023/08/05 01:23:45;;;;;;;3.60;1.98;;;;;;;-142.57;100.00;115900.28;5050353;28;20069;-89
2023/08/05 01:26:11;;;;;;;4.63;1.90;;;;;;;-142.57;100.00;115900.28;5045030;28;20039;-92
2023/08/05 01:28:37;;;;;;;4.47;1.65;;;;;;;-142.57;100.00;115900.28;5044659;28;20105;-88
2023/08/05 01:31:08;;;;;;;6.70;2.22;;;;;;;-142.57;100.00;115900.28;5042893;28;20040;-88
2023/08/05 01:33:34;;;;;;;3.30;1.60;;;;;;;-142.57;100.00;115900.28;5044322;28;20056;-92
2023/08/05 01:36:02;;;;;;;3.88;1.95;;;;;;;-142.57;100.00;115900.28;5044152;28;20170;-89
2023/08/05 01:38:27;;;;;;;7.75;2.33;;;;;;;-142.57;100.00;115900.28;5053853;28;20029;-91
2023/08/05 01:41:22;;;;;;;5.15;2.10;;;;;;;-142.57;100.00;115900.28;5044117;28;20065;-88
2023/08/05 01:44:06;;;;;;;2.33;1.80;;;;;;;-142.57;100.00;115900.28;5080442;23;20033;-85
2023/08/05 01:46:34;;;;;;;3.25;2.00;;;;;;;-142.57;100.00;115900.28;5072978;28;20095;-81
2023/08/05 01:49:29;;;;;;;6.18;2.60;;;;;;;-142.57;100.00;115900.28;5073973;28;20045;-83
2023/08/05 01:52:02;;;;;;;3.55;1.60;;;;;;;-142.57;100.00;115900.28;5073874;28;20041;-92
2023/08/05 01:59:49;;;;;;;3.83;1.67;;;;;;;-142.57;100.00;115900.28;2531571;22;20060;-82
2023/08/05 02:13:05;;;;;;;3.33;1.63;;;;;;;-142.57;100.00;115900.28;5094639;23;20068;-81
2023/08/05 02:23:42;;;;;;;2.80;1.52;;;;;;;-142.57;100.00;115900.28;3711784;23;20051;-85
2023/08/05 02:30:06;;;;;;;9.23;3.13;;;;;;;-142.57;100.00;115900.28;5080716;23;20056;-87
2023/08/05 02:32:47;;;;;;;6.85;3.50;;;;;;;-142.57;100.00;115900.28;5077105;28;20056;-83
2023/08/05 02:35:29;;;;;;;11.32;4.00;;;;;;;-142.57;100.00;115900.28;5073616;28;20060;-86
2023/08/05 02:37:57;;;;;;;11.50;4.70;;;;;;;-142.57;100.00;115900.28;5082926;23;20120;-83
2023/08/05 02:41:30;;;;;;;7.45;4.57;;;;;;;-142.57;100.00;115900.28;5056664;28;20021;-86
2023/08/05 02:47:25;;;;;;;12.68;5.57;;;;;;;-142.57;100.00;115900.28;967008;26;20322;-82
2023/08/05 02:50:21;;;;;;;14.55;5.40;;;;;;;-142.57;100.00;115900.28;5076271;28;20037;-81
2023/08/05 02:52:59;;;;;;;12.98;6.13;;;;;;;-142.57;100.00;115900.28;5078355;28;20096;-83
2023/08/05 02:55:45;;;;;;;13.80;6.55;;;;;;;-142.57;100.00;115900.28;5074608;28;20044;-90
2023/08/05 02:58:15;;;;;;;9.60;5.75;;;;;;;-142.57;100.00;115900.28;5073029;28;20037;-85
2023/08/05 03:00:46;;;;;;;12.05;5.72;;;;;;;-142.57;100.00;115900.28;5073811;28;20088;-92
2023/08/05 03:03:21;;;;;;;11.97;6.03;;;;;;;-142.57;100.00;115900.28;5071163;28;20047;-92
2023/08/05 03:06:19;;;;;;;11.70;6.85;;;;;;;-142.57;100.00;115900.28;5071099;28;20100;-90
2023/08/05 03:08:47;;;;;;;13.05;5.72;;;;;;;-142.57;100.00;115900.28;5073046;28;20048;-91
2023/08/05 03:11:20;;;;;;;12.80;6.55;;;;;;;-142.57;100.00;115900.28;5070507;28;20033;-86
2023/08/05 03:14:06;;;;;;;10.75;6.68;;;;;;;-142.57;100.00;115900.28;5072638;28;20053;-85
2023/08/05 03:16:38;;;;;;;10.13;6.20;;;;;;;-142.57;100.00;115900.28;5069160;28;20132;-89
2023/08/05 03:19:29;;;;;;;16.48;7.32;;;;;;;-142.57;100.00;115900.28;5070826;28;20044;-89
2023/08/05 03:21:56;;;;;;;11.07;6.80;;;;;;;-142.57;100.00;115900.28;5066370;28;20057;-84
2023/08/05 03:24:21;;;;;;;9.32;6.78;;;;;;;-142.57;100.00;115900.28;5046393;28;20032;-81
2023/08/05 03:26:50;;;;;;;10.65;7.40;;;;;;;-142.57;100.00;115900.28;5027947;28;20049;-82
2023/08/05 03:29:16;;;;;;;11.75;6.72;;;;;;;-142.57;100.00;115900.28;5047020;28;20033;-84
2023/08/05 03:31:43;;;;;;;10.30;7.13;;;;;;;-142.57;100.00;115900.28;5052611;28;20029;-81
2023/08/05 03:34:09;;;;;;;14.98;6.70;;;;;;;-142.57;100.00;115900.28;5049979;28;20034;-82
2023/08/05 03:36:40;;;;;;;16.75;8.05;;;;;;;-142.57;100.00;115900.28;5043707;28;20041;-81
2023/08/05 03:39:13;;;;;;;12.88;7.68;;;;;;;-142.57;100.00;115900.28;5040337;28;20103;-82
2023/08/05 03:41:40;;;;;;;10.55;7.40;;;;;;;-142.57;100.00;115900.28;5041483;28;20096;-82
2023/08/05 03:44:06;;;;;;;9.70;7.22;;;;;;;-142.57;100.00;115900.28;5038310;28;20501;-82
2023/08/05 03:46:38;;;;;;;11.43;8.88;;;;;;;-142.57;100.00;115900.28;5037462;28;20033;-82
2023/08/05 03:49:04;;;;;;;16.15;8.68;;;;;;;-142.57;100.00;115900.28;5042318;28;20041;-83
2023/08/05 03:51:39;;;;;;;15.02;8.32;;;;;;;-142.57;100.00;115900.28;5062213;28;20115;-82
2023/08/05 03:54:08;;;;;;;15.07;8.75;;;;;;;-142.57;100.00;115900.28;5049292;28;20052;-81
2023/08/05 03:56:40;;;;;;;13.90;8.95;;;;;;;-142.57;100.00;115900.28;5041900;28;20026;-84
2023/08/05 03:59:08;;;;;;;11.63;8.70;;;;;;;-142.57;100.00;115900.28;5041707;28;20041;-84
2023/08/05 04:01:35;;;;;;;14.88;8.30;;;;;;;-142.57;100.00;115900.28;5044557;28;20033;-83
2023/08/05 04:04:04;;;;;;;12.90;8.38;;;;;;;-142.57;100.00;115900.28;5054556;28;20029;-82
2023/08/05 04:06:36;;;;;;;19.02;9.70;;;;;;;-142.57;100.00;115900.28;5063698;28;20072;-82
2023/08/05 04:09:08;;;;;;;15.23;9.50;;;;;;;-142.57;100.00;115900.28;5047405;28;20045;-83
2023/08/05 04:11:37;;;;;;;15.30;9.48;;;;;;;-142.57;100.00;115900.28;5062556;28;20482;-83
2023/08/05 04:14:06;;;;;;;18.50;10.00;;;;;;;-142.57;100.00;115900.28;5056825;28;20027;-82
2023/08/05 04:16:41;;;;;;;13.93;9.38;;;;;;;-142.57;100.00;115900.28;5043150;28;20060;-82
2023/08/05 04:19:09;;;;;;;20.70;9.68;;;;;;;-142.57;100.00;115900.28;5041896;28;20068;-82
2023/08/05 04:21:45;;;;;;;16.95;9.38;;;;;;;-142.57;100.00;115900.28;5041216;28;20025;-82
2023/08/05 04:24:15;;;;;;;17.17;9.25;;;;;;;-142.57;100.00;115900.28;5056215;28;20086;-85
2023/08/05 04:26:40;;;;;;;15.13;9.88;;;;;;;-142.57;100.00;115900.28;5058381;28;20037;-87
2023/08/05 04:29:06;;;;;;;12.15;8.85;;;;;;;-142.57;100.00;115900.28;5058111;28;20041;-90
2023/08/05 04:31:42;;;;;;;16.27;9.65;;;;;;;-142.57;100.00;115900.28;5061726;28;20036;-84
2023/08/05 04:34:14;;;;;;;16.98;9.68;;;;;;;-142.57;100.00;115900.28;5047254;28;20091;-84
2023/08/05 04:36:39;;;;;;;14.20;9.75;;;;;;;-142.57;100.00;115900.28;5058000;28;20416;-87
2023/08/05 04:39:07;;;;;;;16.23;9.00;;;;;;;-142.57;100.00;115900.28;5059573;28;20025;-85
2023/08/05 04:41:33;;;;;;;20.10;9.90;;;;;;;-142.57;100.00;115900.28;5056579;28;20039;-84
2023/08/05 04:43:58;;;;;;;16.20;10.30;;;;;;;-142.57;100.00;115900.28;5057600;28;20063;-82
2023/08/05 04:46:24;;;;;;;14.55;9.65;;;;;;;-142.57;100.00;115900.28;5041705;28;20033;-82
2023/08/05 04:48:55;;;;;;;14.45;9.07;;;;;;;-142.57;100.00;115900.28;5048278;28;20052;-84
2023/08/05 04:51:20;;;;;;;12.15;8.98;;;;;;;-142.57;100.00;115900.28;5053566;28;20045;-85
2023/08/05 04:54:06;;;;;;;15.52;9.43;;;;;;;-142.57;100.00;115900.28;5061900;28;20025;-85
2023/08/05 04:56:33;;;;;;;10.73;7.88;;;;;;;-142.57;100.00;115900.28;4998027;28;20168;-85
2023/08/05 04:59:01;;;;;;;13.57;9.23;;;;;;;-142.57;100.00;115900.28;4999962;28;20058;-84
2023/08/05 05:01:52;;;;;;;12.85;9.15;;;;;;;-142.57;100.00;115900.28;5001410;28;20137;-86
2023/08/05 05:04:18;;;;;;;13.73;10.38;;;;;;;-142.57;100.00;115900.28;5003215;28;20030;-86
2023/08/05 05:06:47;;;;;;;16.35;9.13;;;;;;;-142.57;100.00;115900.28;5000483;28;20043;-85
2023/08/05 05:09:22;;;;;;;13.38;8.68;;;;;;;-142.57;100.00;115900.28;4984844;28;20042;-85
2023/08/05 05:11:53;;;;;;;12.07;7.38;;;;;;;-142.57;100.00;115900.28;4966676;28;20058;-86
2023/08/05 05:14:19;;;;;;;9.13;6.10;;;;;;;-142.57;100.00;115900.28;4994682;28;20054;-85
2023/08/05 05:17:12;;;;;;;9.95;6.95;;;;;;;-142.57;100.00;115900.28;5004929;28;20042;-84
2023/08/05 05:19:40;;;;;;;9.90;7.60;;;;;;;-142.57;100.00;115900.28;5004946;28;20141;-83
2023/08/05 05:22:15;;;;;;;11.60;7.88;;;;;;;-142.57;100.00;115900.28;5065809;23;20051;-85
2023/08/05 05:25:08;;;;;;;8.23;7.22;;;;;;;-142.57;100.00;115900.28;5085311;28;20041;-85
2023/08/05 05:27:54;;;;;;;12.77;6.68;;;;;;;-142.57;100.00;115900.28;4979718;28;20058;-85
2023/08/05 05:30:20;;;;;;;10.85;6.60;;;;;;;-142.57;100.00;115900.28;4981742;28;20589;-87
2023/08/05 05:32:51;;;;;;;10.35;5.70;;;;;;;-142.57;100.00;115900.28;4981385;28;20071;-86
2023/08/05 05:35:21;;;;;;;11.60;6.22;;;;;;;-142.57;100.00;115900.28;4958039;28;20047;-86
2023/08/05 05:38:01;;;;;;;7.00;4.93;;;;;;;-142.57;100.00;115900.28;4959373;28;20038;-86
2023/08/05 05:40:29;;;;;;;13.25;5.25;;;;;;;-142.57;100.00;115900.28;4982993;28;20567;-87
2023/08/05 05:42:55;;;;;;;8.82;4.05;;;;;;;-142.57;100.00;115900.28;4988637;28;20050;-86
2023/08/05 05:45:25;;;;;;;8.65;3.95;;;;;;;-142.57;100.00;115900.28;4987229;28;20050;-88
2023/08/05 05:48:07;;;;;;;9.02;3.72;;;;;;;-142.57;100.00;115900.28;4969484;28;20078;-87
2023/08/05 05:50:41;;;;;;;8.27;3.50;;;;;;;-142.57;100.00;115900.28;4971048;28;20069;-91
2023/08/05 05:53:08;;;;;;;9.57;3.50;;;;;;;-142.57;100.00;115900.28;4963798;28;20055;-92
2023/08/05 05:55:34;;;;;;;13.43;3.28;;;;;;;-142.57;100.00;115900.28;4978058;28;20093;-87
2023/08/05 05:57:59;;;;;;;4.53;2.63;;;;;;;-142.57;100.00;115900.28;4978041;28;20127;-84
2023/08/05 06:00:25;;;;;;;3.55;2.70;;;;;;;-142.57;100.00;115900.28;4978545;28;20165;-87
2023/08/05 06:02:51;;;;;;;4.80;2.65;;;;;;;-142.57;100.00;115900.28;4970344;28;20046;-80
2023/08/05 06:05:17;;;;;;;4.43;2.70;;;;;;;-142.57;100.00;115900.28;5077061;28;20040;-85
2023/08/05 06:07:43;;;;;;;4.65;2.60;;;;;;;-142.57;100.00;115900.28;5063961;28;20098;-87
2023/08/05 06:10:09;;;;;;;4.05;2.55;;;;;;;-142.57;100.00;115900.28;5086087;28;20190;-91
2023/08/05 06:12:37;;;;;;;3.33;2.00;;;;;;;-142.57;100.00;115900.28;5067256;28;20428;-92
2023/08/05 06:15:21;;;;;;;3.22;1.95;;;;;;;-142.57;100.00;115900.28;5068129;28;20035;-94
2023/08/05 06:17:58;;;;;;;4.32;1.92;;;;;;;-142.57;100.00;115900.28;5055931;28;20033;-92
2023/08/05 06:20:53;;;;;;;4.27;1.93;;;;;;;-142.57;100.00;115900.28;5072261;28;20045;-87
2023/08/05 06:23:19;;;;;;;4.32;2.30;;;;;;;-142.57;100.00;115900.28;5073713;28;20308;-88
2023/08/05 06:25:45;;;;;;;4.20;2.38;;;;;;;-142.57;100.00;115900.28;5057732;28;20485;-89
2023/08/05 06:28:11;;;;;;;3.05;2.20;;;;;;;-142.57;100.00;115900.28;5057685;28;20036;-87
2023/08/05 06:30:45;;;;;;;3.55;2.10;;;;;;;-142.57;100.00;115900.28;5078034;28;20043;-88
2023/08/05 06:33:11;;;;;;;5.28;2.30;;;;;;;-142.57;100.00;115900.28;5078666;28;20032;-89
2023/08/05 06:35:37;;;;;;;6.35;2.53;;;;;;;-142.57;100.00;115900.28;5070082;28;20063;-90
2023/08/05 06:38:02;;;;;;;4.85;2.58;;;;;;;-142.57;100.00;115900.28;5065954;28;20044;-88
2023/08/05 06:40:28;;;;;;;5.82;3.10;;;;;;;-142.57;100.00;115900.28;5062333;28;20029;-88
2023/08/05 06:42:54;;;;;;;4.05;2.38;;;;;;;-142.57;100.00;115900.28;5065520;28;20101;-86
2023/08/05 06:45:19;;;;;;;4.15;2.78;;;;;;;-142.57;100.00;115900.28;5089329;28;20064;-85
2023/08/05 06:48:00;;;;;;;3.80;2.55;;;;;;;-142.57;100.00;115900.28;5070298;28;20025;-90
2023/08/05 06:50:26;;;;;;;7.47;3.28;;;;;;;-142.57;100.00;115900.28;5050894;28;20037;-90
2023/08/05 06:52:51;;;;;;;7.05;3.15;;;;;;;-142.57;100.00;115900.28;5077141;28;20040;-87
2023/08/05 06:55:18;;;;;;;3.55;2.70;;;;;;;-142.57;100.00;115900.28;5054298;28;20070;-86
2023/08/05 06:57:48;;;;;;;4.85;2.97;;;;;;;-142.57;100.00;115900.28;5055996;28;20033;-86
2023/08/05 07:00:14;;;;;;;4.55;3.00;;;;;;;-142.57;100.00;115900.28;5055809;28;20481;-85
2023/08/05 07:02:39;;;;;;;4.47;2.90;;;;;;;-142.57;100.00;115900.28;5056763;28;20386;-87
2023/08/05 07:05:05;;;;;;;7.53;3.15;;;;;;;-142.57;100.00;115900.28;5063382;28;20170;-86
2023/08/05 07:07:31;;;;;;;6.53;3.30;;;;;;;-142.57;100.00;115900.28;5053503;28;20086;-85
2023/08/05 07:10:01;;;;;;;3.35;2.65;;;;;;;-142.57;100.00;115900.28;5075333;28;20173;-88
2023/08/05 07:12:27;;;;;;;5.32;3.08;;;;;;;-142.57;100.00;115900.28;5076025;28;20115;-85
2023/08/05 07:14:53;;;;;;;4.72;2.65;;;;;;;-142.57;100.00;115900.28;5067436;28;20528;-83
2023/08/05 07:17:20;;;;;;;6.25;2.47;;;;;;;-142.57;100.00;115900.28;5056188;28;20045;-79
2023/08/05 07:19:46;;;;;;;5.55;2.50;;;;;;;-142.57;100.00;115900.28;5074740;28;20032;-86
2023/08/05 07:22:11;;;;;;;4.43;2.40;;;;;;;-142.57;100.00;115900.28;5073677;28;20031;-85
2023/08/05 07:24:36;;;;;;;4.10;2.63;;;;;;;-142.57;100.00;115900.28;5074260;28;20032;-80
2023/08/05 07:27:02;;;;;;;4.78;2.78;;;;;;;-142.57;100.00;115900.28;5055581;28;20059;-85
2023/08/05 07:29:28;;;;;;;4.63;2.75;;;;;;;-142.57;100.00;115900.28;5036813;28;20151;-83
2023/08/05 07:31:53;;;;;;;4.68;2.75;;;;;;;-142.57;100.00;115900.28;5053845;28;20083;-82
2023/08/05 07:34:19;;;;;;;4.57;2.80;;;;;;;-142.57;100.00;115900.28;5058702;28;20036;-84
2023/08/05 07:36:44;;;;;;;6.25;2.88;;;;;;;-142.57;100.00;115900.28;5074544;28;20048;-86
2023/08/05 07:39:10;;;;;;;7.40;3.33;;;;;;;-142.57;100.00;115900.28;5056720;28;20139;-86
2023/08/05 07:41:36;;;;;;;8.57;3.25;;;;;;;-142.57;100.00;115900.28;5075152;28;20097;-92
2023/08/05 07:44:08;;;;;;;7.93;3.42;;;;;;;-142.57;100.00;115900.28;5059454;28;20055;-92
2023/08/05 07:46:36;;;;;;;9.75;4.32;;;;;;;-142.57;100.00;115900.28;5041860;28;20036;-87
2023/08/05 07:49:04;;;;;;;13.07;3.67;;;;;;;-142.57;100.00;115900.28;5057731;28;20067;-88
2023/08/05 07:51:30;;;;;;;7.78;3.22;;;;;;;-142.57;100.00;115900.28;5056486;28;20041;-89
2023/08/05 07:53:57;;;;;;;9.52;3.05;;;;;;;-142.57;100.00;115900.28;5075091;28;20090;-89
2023/08/05 07:56:23;;;;;;;4.75;2.60;;;;;;;-142.57;100.00;115900.28;5057030;28;20033;-88
2023/08/05 07:58:50;;;;;;;8.18;3.03;;;;;;;-142.57;100.00;115900.28;5075476;28;20036;-88
2023/08/05 08:01:19;;;;;;;8.63;3.42;;;;;;;-142.57;100.00;115900.28;5075538;28;20037;-87
2023/08/05 08:03:46;;;;;;;5.43;2.85;;;;;;;-142.57;100.00;115900.28;5074686;28;20129;-85
2023/08/05 08:06:15;;;;;;;6.10;3.10;;;;;;;-142.57;100.00;115900.28;5072663;28;20032;-86
2023/08/05 08:08:42;;;;;;;4.93;2.90;;;;;;;-142.57;100.00;115900.28;5063383;28;20120;-85
2023/08/05 08:11:33;;;;;;;10.30;2.85;;;;;;;-142.57;100.00;115900.28;5054543;28;20035;-87
2023/08/05 08:13:58;;;;;;;7.70;3.50;;;;;;;-142.57;100.00;115900.28;5050778;28;20032;-86
2023/08/05 08:16:24;;;;;;;4.97;3.10;;;;;;;-142.57;100.00;115900.28;5074667;28;20074;-88
2023/08/05 08:18:49;;;;;;;7.53;3.05;;;;;;;-142.57;100.00;115900.28;5074222;28;20100;-86
2023/08/05 08:21:15;;;;;;;7.10;3.00;;;;;;;-142.57;100.00;115900.28;5057577;28;20024;-86
2023/08/05 08:23:40;;;;;;;5.50;2.60;;;;;;;-142.57;100.00;115900.28;5071546;28;20477;-85
2023/08/05 08:26:06;;;;;;;13.10;3.00;;;;;;;-142.57;100.00;115900.28;5063155;28;20072;-86
2023/08/05 08:28:32;;;;;;;8.20;2.95;;;;;;;-142.57;100.00;115900.28;5054661;28;20060;-85
2023/08/05 08:30:57;;;;;;;7.40;2.50;;;;;;;-142.57;100.00;115900.28;5068008;28;20032;-91
2023/08/05 08:33:25;;;;;;;5.00;2.20;;;;;;;-142.57;100.00;115900.28;5040268;28;20036;-87
2023/08/05 08:35:51;;;;;;;3.45;2.17;;;;;;;-142.57;100.00;115900.28;5061323;28;20041;-87
2023/08/05 08:38:17;;;;;;;8.65;2.53;;;;;;;-142.57;100.00;115900.28;5051705;28;20031;-90
2023/08/05 08:40:47;;;;;;;8.60;2.22;;;;;;;-142.57;100.00;115900.28;5052664;28;20083;-88
2023/08/05 08:43:17;;;;;;;13.30;2.67;;;;;;;-142.57;100.00;115900.28;5039629;28;20025;-88
2023/08/05 08:45:50;;;;;;;8.20;2.30;;;;;;;-142.57;100.00;115900.28;5070081;28;20033;-85
2023/08/05 08:48:16;;;;;;;7.68;2.03;;;;;;;-142.57;100.00;115900.28;5065378;28;20035;-88
2023/08/05 08:50:47;;;;;;;7.70;2.22;;;;;;;-142.57;100.00;115900.28;5055094;28;20016;-87
2023/08/05 08:53:14;;;;;;;3.15;1.85;;;;;;;-142.57;100.00;115900.28;5049845;28;20042;-87
2023/08/05 08:55:43;;;;;;;2.72;1.70;;;;;;;-142.57;100.00;115900.28;5046790;28;20033;-86
2023/08/05 08:58:11;;;;;;;3.33;1.70;;;;;;;-142.57;100.00;115900.28;5065424;28;20029;-85
2023/08/05 09:00:38;;;;;;;3.40;1.80;;;;;;;-142.57;100.00;115900.28;5067465;28;20037;-88
2023/08/05 09:03:05;;;;;;;6.28;1.80;;;;;;;-142.57;100.00;115900.28;5085490;28;20033;-86
2023/08/05 09:05:39;;;;;;;3.85;1.50;;;;;;;-142.57;100.00;115900.28;5089673;28;20024;-87
2023/08/05 09:08:06;;;;;;;6.43;1.67;;;;;;;-142.57;100.00;115900.28;5079856;28;20025;-87
2023/08/05 09:10:34;;;;;;;4.13;1.70;;;;;;;-142.57;100.00;115900.28;5056956;28;20013;-85
2023/08/05 09:13:25;;;;;;;7.80;2.03;;;;;;;-142.57;100.00;115900.28;5062422;28;20029;-89
2023/08/05 09:16:29;;;;;;;3.72;2.03;;;;;;;-142.57;100.00;115900.28;5064456;28;20025;-84
2023/08/05 09:19:06;;;;;;;11.90;2.15;;;;;;;-142.57;100.00;115900.28;5054588;28;20123;-83
2023/08/05 09:21:35;;;;;;;6.63;1.80;;;;;;;-142.57;100.00;115900.28;5087094;28;20029;-84
2023/08/05 09:24:01;;;;;;;3.70;1.75;;;;;;;-142.57;100.00;115900.28;5058066;28;20032;-86
2023/08/05 09:26:46;;;;;;;6.40;1.98;;;;;;;-142.57;100.00;115900.28;5040964;28;20406;-86
2023/08/05 09:29:21;;;;;;;5.00;2.15;;;;;;;-142.57;100.00;115900.28;5065216;28;20033;-86
2023/08/05 09:31:58;;;;;;;4.68;2.40;;;;;;;-142.57;100.00;115900.28;5030067;28;20048;-86
2023/08/05 09:34:39;;;;;;;6.88;2.42;;;;;;;-142.57;100.00;115900.28;5084110;28;20036;-88
2023/08/05 09:37:06;;;;;;;4.30;2.08;;;;;;;-142.57;100.00;115900.28;5056345;28;20066;-88
2023/08/05 09:39:46;;;;;;;8.68;2.50;;;;;;;-142.57;100.00;115900.28;5033826;28;20423;-89
2023/08/05 09:42:24;;;;;;;4.43;2.15;;;;;;;-142.57;100.00;115900.28;5071541;28;20036;-85
2023/08/05 09:44:57;;;;;;;6.75;2.63;;;;;;;-142.57;100.00;115900.28;5080894;28;20055;-87
2023/08/05 09:47:28;;;;;;;6.22;2.38;;;;;;;-142.57;100.00;115900.28;5079034;28;20086;-87
2023/08/05 09:49:56;;;;;;;3.42;2.00;;;;;;;-142.57;100.00;115900.28;5078326;28;20111;-86
2023/08/05 09:52:23;;;;;;;3.20;1.70;;;;;;;-142.57;100.00;115900.28;5059806;28;20063;-87
2023/08/05 09:55:13;;;;;;;5.78;1.77;;;;;;;-142.57;100.00;115900.28;5062741;28;20040;-90
2023/08/05 09:57:43;;;;;;;5.43;2.08;;;;;;;-142.57;100.00;115900.28;5063427;28;20039;-90
2023/08/05 10:00:11;;;;;;;7.05;2.22;;;;;;;-142.57;100.00;115900.28;5064015;28;20033;-87
2023/08/05 10:02:45;;;;;;;3.80;2.20;;;;;;;-142.57;100.00;115900.28;5078350;28;20503;-88
2023/08/05 10:05:12;;;;;;;4.20;2.20;;;;;;;-142.57;100.00;115900.28;5078873;28;20040;-86
2023/08/05 10:07:40;;;;;;;6.43;2.05;;;;;;;-142.57;100.00;115900.28;5080140;28;20116;-87
2023/08/05 10:10:13;;;;;;;7.82;2.20;;;;;;;-142.57;100.00;115900.28;5061833;28;20094;-89
2023/08/05 10:12:43;;;;;;;7.65;1.77;;;;;;;-142.57;100.00;115900.28;5062058;28;20051;-86
2023/08/05 10:15:13;;;;;;;3.47;1.50;;;;;;;-142.57;100.00;115900.28;5097570;28;20021;-87
2023/08/05 10:17:41;;;;;;;2.10;1.30;;;;;;;-142.57;100.00;115900.28;5095669;28;20060;-84
2023/08/05 10:20:11;;;;;;;2.72;1.23;;;;;;;-142.57;99.60;115900.28;5077716;28;20036;-84
2023/08/05 10:22:38;;;;;;;2.13;0.98;;;;;;;-142.57;89.97;115900.28;5076816;28;20036;-86
2023/08/05 10:25:10;;;;;;;1.42;0.60;;;;;;;-142.57;86.73;115900.28;5077345;28;20036;-87
2023/08/05 10:27:37;;;;;;;3.90;0.70;;;;;;;-142.57;88.04;115900.28;5083248;28;20108;-88
2023/08/05 10:30:18;;;;;;;3.88;0.70;;;;;;;-142.57;84.30;115900.28;5063562;28;20044;-89
2023/08/05 10:32:58;;;;;;;6.68;0.60;;;;;;;-142.57;86.04;115900.28;5063276;28;20094;-88
2023/08/05 10:35:31;;;;;;;1.45;0.60;;;;;;;-142.57;87.09;115900.28;5062578;28;20043;-88
2023/08/05 10:38:12;;;;;;;3.55;0.60;;;;;;;-142.57;85.33;115900.28;5062196;28;20041;-88
2023/08/05 10:40:45;;;;;;;5.82;2.05;;;;;;;-142.57;85.89;115900.28;5082212;28;20079;-91
2023/08/05 10:43:25;;;;;;;1.27;0.60;;;;;;;-142.57;84.50;115900.28;5049202;28;20052;-90
2023/08/05 10:45:50;;;;;;;1.08;0.45;;;;;;;-142.57;80.28;115900.28;5069428;28;20044;-87
2023/08/05 10:48:17;;;;;;;3.00;0.50;;;;;;;-142.57;68.34;115900.28;5071486;28;20036;-88
2023/08/05 10:50:46;;;;;;;3.60;0.65;;;;;;;-142.57;62.17;115900.28;5062169;28;20064;-89
2023/08/05 10:53:12;;;;;;;4.25;0.55;;;;;;;-142.57;56.88;115900.28;5050275;28;20045;-91
2023/08/05 10:55:55;;;;;;;2.05;0.40;;;;;;;-142.57;54.92;115900.28;5034826;28;20025;-90
2023/08/05 10:58:27;;;;;;;3.03;0.60;;;;;;;-142.57;55.89;115900.28;5069105;28;20028;-90
2023/08/05 11:01:00;;;;;;;2.00;0.65;;;;;;;-142.57;55.79;115900.28;5035636;28;20037;-91
2023/08/05 11:03:56;;;;;;;1.83;0.50;;;;;;;-142.57;50.81;115900.28;5069581;28;20092;-89
2023/08/05 11:06:23;;;;;;;2.60;0.57;;;;;;;-142.57;51.23;115900.28;5056418;28;20037;-88
2023/08/05 11:08:49;;;;;;;3.10;0.47;;;;;;;-142.57;51.75;115900.28;5053645;28;20033;-88
2023/08/05 11:11:15;;;;;;;0.75;0.38;;;;;;;-142.57;53.71;115900.28;5072124;28;20037;-88
2023/08/05 11:13:43;;;;;;;4.45;0.68;;;;;;;-142.57;57.15;115900.28;5068642;28;20056;-90
2023/08/05 11:16:13;;;;;;;4.18;0.63;;;;;;;-142.57;57.18;115900.28;5069005;28;20071;-89
2023/08/05 11:19:00;;;;;;;1.92;0.50;;;;;;;-142.57;57.90;115900.28;5046151;28;20033;-88
2023/08/05 11:21:25;;;;;;;3.53;0.68;;;;;;;-142.57;54.33;115900.28;5050808;28;20109;-86
2023/08/05 11:23:51;;;;;;;5.93;0.60;;;;;;;-142.57;54.77;115900.28;5050314;28;20029;-89
2023/08/05 11:26:21;;;;;;;2.50;0.80;;;;;;;-142.57;52.67;115900.28;5029967;28;20052;-89
2023/08/05 11:28:47;;;;;;;2.15;0.57;;;;;;;-142.57;52.19;115900.28;5050037;28;20064;-88
2023/08/05 11:31:41;;;;;;;1.58;0.75;;;;;;;-142.57;50.39;115900.28;5047986;28;20033;-91
2023/08/05 11:34:07;;;;;;;4.00;0.70;;;;;;;-142.57;49.87;115900.28;5062679;28;20516;-90
2023/08/05 11:36:35;;;;;;;2.83;0.82;;;;;;;-142.57;47.52;115900.28;5032513;28;20040;-87
2023/08/05 11:39:04;;;;;;;1.20;0.68;;;;;;;-142.57;46.25;115900.28;5081469;23;20038;-84
2023/08/05 11:41:32;;;;;;;1.20;0.73;;;;;;;-142.57;46.48;115900.28;5049445;28;20045;-84
2023/08/05 11:44:05;;;;;;;3.20;1.23;;;;;;;-142.57;46.54;115900.28;5045225;28;20036;-84
2023/08/05 11:46:31;;;;;;;2.10;0.80;;;;;;;-142.57;48.06;115900.28;5045033;28;20466;-87
2023/08/05 11:49:12;;;;;;;2.70;0.98;;;;;;;-142.57;48.58;115900.28;5023259;28;20034;-86
2023/08/05 11:51:52;;;;;;;1.52;0.57;;;;;;;-142.57;48.60;115900.28;5020880;28;20034;-89
2023/08/05 11:54:24;;;;;;;3.35;0.90;;;;;;;-142.57;48.89;115900.28;5014555;28;20033;-87
2023/08/05 11:56:50;;;;;;;1.60;0.47;;;;;;;-142.57;48.34;115900.28;5014390;28;20053;-89
2023/08/05 11:59:15;;;;;;;0.73;0.50;;;;;;;-142.57;47.85;115900.28;5013388;28;20022;-85
2023/08/05 12:01:41;;;;;;;1.65;0.43;;;;;;;-142.57;49.41;115900.28;5014119;28;20471;-89
2023/08/05 12:04:11;;;;;;;2.70;0.40;;;;;;;-142.57;49.97;115900.28;5014349;28;20034;-87
2023/08/05 12:06:36;;;;;;;1.10;0.40;;;;;;;-142.57;49.08;115900.28;5014376;28;20069;-88
2023/08/05 12:09:02;;;;;;;0.40;0.30;;;;;;;-142.57;49.46;115900.28;5014078;28;20115;-86
2023/08/05 12:11:27;;;;;;;0.50;0.30;;;;;;;-142.57;49.88;115900.28;5014088;28;20084;-88
2023/08/05 12:13:53;;;;;;;0.75;0.30;;;;;;;-142.57;50.12;115900.28;5013378;28;20502;-86
2023/08/05 12:16:19;;;;;;;1.75;0.50;;;;;;;-142.57;49.73;115900.28;5014033;28;20541;-86
2023/08/05 12:18:45;;;;;;;2.28;0.38;;;;;;;-142.57;49.90;115900.28;5028503;28;20064;-85